Time;durP1;ratioP1;P1;durP2;ratioP2;P2;SDS_P1;SDS_P2;PMS_P1;PMS_P2;Temp;Humidity;BMP_temperature;BMP_pressure;BME280_temperature;BME280_humidity;BME280_pressure;Samples;Min_cycle;Max_cycle;Signal;HPM_P1;HPM_P2
2022/01/18 00:01:50;;;;;;;62.78;8.40;;;6.50;99.90;;;;;;4850799;29;20056;-71
2022/01/18 00:04:16;;;;;;;70.43;9.68;;;6.50;99.90;;;;;;4834085;29;20054;-71
2022/01/18 00:06:46;;;;;;;74.15;10.57;;;6.50;99.90;;;;;;4833816;29;20088;-71
2022/01/18 00:09:12;;;;;;;70.90;10.35;;;6.50;99.90;;;;;;4834173;29;20054;-71
2022/01/18 00:11:49;;;;;;;71.55;9.98;;;6.50;99.90;;;;;;4851074;29;20060;-71
2022/01/18 00:14:24;;;;;;;68.15;9.25;;;6.40;99.90;;;;;;4834232;29;20065;-71
2022/01/18 00:17:16;;;;;;;66.00;10.27;;;6.40;99.90;;;;;;4833859;29;20144;-71
2022/01/18 00:19:45;;;;;;;60.92;8.60;;;6.40;99.90;;;;;;4834247;29;20045;-71
2022/01/18 00:22:12;;;;;;;61.80;9.55;;;6.30;99.90;;;;;;4831407;29;20639;-71
2022/01/18 00:24:40;;;;;;;62.05;9.82;;;6.30;99.90;;;;;;4827862;29;20065;-71
2022/01/18 00:27:13;;;;;;;58.30;9.43;;;6.20;99.90;;;;;;4849329;29;20050;-71
2022/01/18 00:29:49;;;;;;;56.90;8.00;;;6.20;99.90;;;;;;4833632;29;20493;-71
2022/01/18 00:32:36;;;;;;;58.72;9.45;;;6.20;99.90;;;;;;4834406;29;20102;-71
2022/01/18 00:35:01;;;;;;;56.40;8.57;;;6.20;99.90;;;;;;4834489;29;20510;-71
2022/01/18 00:37:34;;;;;;;66.88;8.90;;;6.20;99.90;;;;;;4837399;29;20081;-71
2022/01/18 00:40:01;;;;;;;65.80;8.73;;;6.10;99.90;;;;;;4836407;29;20157;-71
2022/01/18 00:42:27;;;;;;;56.92;8.27;;;6.10;99.90;;;;;;4837665;29;20395;-71
2022/01/18 00:44:53;;;;;;;71.00;8.27;;;6.10;99.90;;;;;;4837564;29;20069;-70
2022/01/18 00:47:19;;;;;;;64.33;7.83;;;6.00;99.90;;;;;;4837124;29;20042;-71
2022/01/18 00:49:47;;;;;;;61.97;9.17;;;6.00;99.90;;;;;;4853869;29;20045;-71
2022/01/18 00:52:15;;;;;;;62.97;10.35;;;6.00;99.90;;;;;;4837373;29;20053;-70
2022/01/18 00:54:44;;;;;;;74.47;12.23;;;6.00;99.90;;;;;;4836911;29;20122;-70
2022/01/18 00:57:10;;;;;;;85.65;11.18;;;6.00;99.90;;;;;;4837204;29;20053;-71
2022/01/18 00:59:36;;;;;;;74.57;10.25;;;6.00;99.90;;;;;;4816278;29;20054;-71
2022/01/18 01:02:02;;;;;;;54.83;9.57;;;6.00;99.90;;;;;;4822130;29;20373;-70
2022/01/18 01:04:32;;;;;;;62.33;7.40;;;6.00;99.90;;;;;;4853634;29;20056;-70
2022/01/18 01:06:57;;;;;;;68.13;10.10;;;6.00;99.90;;;;;;4836891;29;20111;-71
2022/01/18 01:09:23;;;;;;;68.20;8.47;;;6.00;99.90;;;;;;4836839;29;20061;-70
2022/01/18 01:11:50;;;;;;;86.13;11.33;;;6.00;99.90;;;;;;4852254;29;20157;-71
2022/01/18 01:14:21;;;;;;;97.18;9.82;;;6.00;99.90;;;;;;4853486;29;20744;-70
2022/01/18 01:19:46;;;;;;;78.60;9.32;;;6.00;99.90;;;;;;4836492;29;20064;-70
2022/01/18 01:46:31;;;;;;;68.90;10.63;;;5.80;99.90;;;;;;4852171;29;20065;-70
2022/01/18 01:48:59;;;;;;;53.30;8.65;;;5.70;99.90;;;;;;4852528;29;20048;-70
2022/01/18 01:51:31;;;;;;;65.35;7.93;;;5.70;99.90;;;;;;4853229;29;20169;-70
2022/01/18 01:54:04;;;;;;;63.60;7.70;;;5.80;99.90;;;;;;4852669;29;20049;-70
2022/01/18 01:56:31;;;;;;;57.80;8.00;;;5.80;99.90;;;;;;4852845;29;20109;-71
2022/01/18 01:58:57;;;;;;;56.80;8.25;;;5.70;99.90;;;;;;4852751;29;20049;-71
2022/01/18 02:01:23;;;;;;;63.35;8.45;;;5.80;99.90;;;;;;4853228;29;20154;-70
2022/01/18 02:03:49;;;;;;;69.07;8.37;;;5.70;99.90;;;;;;4852818;29;20178;-71
2022/01/18 02:06:16;;;;;;;49.63;7.95;;;5.80;99.90;;;;;;4853125;29;20347;-71
2022/01/18 02:08:42;;;;;;;53.33;8.13;;;5.80;99.90;;;;;;4852205;29;20065;-71
2022/01/18 02:11:09;;;;;;;51.08;9.20;;;5.90;99.90;;;;;;4852804;29;20117;-70
2022/01/18 02:13:35;;;;;;;38.17;7.28;;;5.90;99.90;;;;;;4852759;29;20090;-71
2022/01/18 02:23:56;;;;;;;54.25;7.85;;;6.00;99.90;;;;;;4844556;29;20106;-70
2022/01/18 02:26:21;;;;;;;43.50;5.63;;;6.00;99.90;;;;;;4810810;29;20050;-70
2022/01/18 02:28:47;;;;;;;38.93;6.70;;;6.00;99.90;;;;;;4849263;29;20053;-70
2022/01/18 02:31:13;;;;;;;39.00;6.22;;;6.10;99.90;;;;;;4844267;29;20058;-71
2022/01/18 02:33:39;;;;;;;44.53;5.60;;;6.10;99.90;;;;;;4851897;29;20128;-71
2022/01/18 02:36:09;;;;;;;45.20;6.43;;;6.10;99.90;;;;;;4852602;29;20307;-70
2022/01/18 02:38:34;;;;;;;46.13;6.80;;;6.10;99.90;;;;;;4850511;29;20042;-70
2022/01/18 02:41:01;;;;;;;54.57;6.67;;;6.20;99.90;;;;;;4823734;29;20060;-71
2022/01/18 02:46:11;;;;;;;50.97;6.78;;;6.20;99.90;;;;;;4835321;29;20072;-70
2022/01/18 02:48:37;;;;;;;53.97;6.82;;;6.20;99.90;;;;;;4852197;29;20050;-70
2022/01/18 02:51:04;;;;;;;40.80;7.40;;;6.20;99.90;;;;;;4852068;29;20050;-70
2022/01/18 02:53:30;;;;;;;44.92;6.65;;;6.20;99.90;;;;;;4852042;29;20136;-70
2022/01/18 02:55:57;;;;;;;46.40;6.20;;;6.20;99.90;;;;;;4841853;29;20136;-71
2022/01/18 02:58:30;;;;;;;38.78;6.07;;;6.20;99.90;;;;;;4849418;29;20053;-70
2022/01/18 03:03:35;;;;;;;34.33;5.18;;;6.30;99.90;;;;;;4851959;29;20136;-70
2022/01/18 03:06:04;;;;;;;47.40;6.38;;;6.30;99.90;;;;;;4850394;29;20049;-70
2022/01/18 03:08:30;;;;;;;45.28;6.60;;;6.30;99.90;;;;;;4838562;29;20057;-70
2022/01/18 03:10:58;;;;;;;39.78;5.43;;;6.30;99.90;;;;;;4847947;29;20056;-70
2022/01/18 03:13:24;;;;;;;38.70;6.47;;;6.30;99.90;;;;;;4851884;29;20049;-70
2022/01/18 03:15:50;;;;;;;35.40;5.88;;;6.30;99.90;;;;;;4835098;29;20058;-70
2022/01/18 03:18:16;;;;;;;40.63;5.70;;;6.30;99.90;;;;;;4851400;29;20093;-70
2022/01/18 03:20:42;;;;;;;34.08;5.57;;;6.30;99.90;;;;;;4834885;29;20125;-70
2022/01/18 03:23:18;;;;;;;32.75;4.93;;;6.30;99.90;;;;;;4839957;29;20058;-70
2022/01/18 03:28:17;;;;;;;33.35;5.85;;;6.30;99.90;;;;;;4849672;29;20137;-70
2022/01/18 03:30:46;;;;;;;28.50;5.68;;;6.40;99.90;;;;;;4831848;29;20065;-70
2022/01/18 03:33:17;;;;;;;41.40;6.53;;;6.40;99.90;;;;;;4834782;29;20054;-70
2022/01/18 03:35:43;;;;;;;32.08;4.88;;;6.40;99.90;;;;;;4851156;29;20073;-70
2022/01/18 03:38:09;;;;;;;;;;;6.40;99.90;;;;;;4851477;29;20058;-71
2022/01/18 03:40:35;;;;;;;36.67;5.13;;;6.40;99.90;;;;;;4828903;29;19956;-70
2022/01/18 03:43:02;;;;;;;33.33;6.10;;;6.40;99.90;;;;;;4816538;29;20133;-70
2022/01/18 03:45:32;;;;;;;35.08;5.82;;;6.50;99.90;;;;;;4838686;29;20382;-70
2022/01/18 03:48:02;;;;;;;28.75;4.63;;;6.50;99.90;;;;;;4834779;29;20224;-70
2022/01/18 03:50:28;;;;;;;27.50;4.57;;;6.50;99.90;;;;;;4833678;29;20064;-70
2022/01/18 03:52:54;;;;;;;32.92;6.00;;;6.50;99.90;;;;;;4851186;29;20056;-70
2022/01/18 03:55:21;;;;;;;22.27;4.75;;;6.50;99.90;;;;;;4851251;29;20049;-70
2022/01/18 03:57:48;;;;;;;27.13;3.75;;;6.50;99.90;;;;;;4851302;29;20110;-70
2022/01/18 04:00:19;;;;;;;24.88;4.35;;;6.50;99.90;;;;;;4833771;29;20093;-70
2022/01/18 04:02:46;;;;;;;27.73;4.85;;;6.50;99.90;;;;;;4849656;29;20050;-70
2022/01/18 04:05:12;;;;;;;25.38;4.15;;;6.50;99.90;;;;;;4849493;29;20054;-71
2022/01/18 04:07:38;;;;;;;21.25;3.47;;;6.50;99.90;;;;;;4834384;29;20046;-71
2022/01/18 04:10:05;;;;;;;23.25;4.05;;;6.50;99.90;;;;;;4836379;29;20160;-70
2022/01/18 04:12:31;;;;;;;26.33;4.32;;;6.50;99.90;;;;;;4839831;29;20045;-70
2022/01/18 04:14:59;;;;;;;23.45;4.22;;;6.50;99.90;;;;;;4840715;29;20566;-70
2022/01/18 04:30:57;;;;;;;21.20;3.72;;;6.50;99.90;;;;;;4856805;29;20509;-71
2022/01/18 04:33:29;;;;;;;28.60;4.70;;;6.40;99.90;;;;;;4856597;29;20065;-69
2022/01/18 04:35:55;;;;;;;21.20;5.35;;;6.50;99.90;;;;;;4836866;29;20080;-70
2022/01/18 04:38:21;;;;;;;25.30;4.70;;;6.50;99.90;;;;;;4834161;29;20051;-70
2022/01/18 04:40:48;;;;;;;20.45;3.83;;;6.50;99.90;;;;;;4830833;29;20050;-70
2022/01/18 04:48:47;;;;;;;20.27;3.53;;;6.50;99.90;;;;;;4782006;30;20066;-70
2022/01/18 04:51:13;;;;;;;19.77;3.83;;;6.40;99.90;;;;;;4788390;30;20070;-70
2022/01/18 04:53:48;;;;;;;24.33;3.70;;;6.50;99.90;;;;;;4786813;30;20124;-70
2022/01/18 04:56:16;;;;;;;15.68;3.33;;;6.50;99.90;;;;;;4762307;29;20055;-70
2022/01/18 04:58:42;;;;;;;19.95;4.03;;;6.50;99.90;;;;;;4799399;30;20232;-71
2022/01/18 05:01:09;;;;;;;23.88;3.38;;;6.50;99.90;;;;;;4781802;30;20054;-70
2022/01/18 05:03:36;;;;;;;15.15;4.22;;;6.50;99.90;;;;;;4766179;30;20137;-70
2022/01/18 05:06:08;;;;;;;17.85;3.17;;;6.50;99.90;;;;;;4799881;30;20059;-70
2022/01/18 05:08:36;;;;;;;19.20;3.15;;;6.50;99.90;;;;;;4783503;30;20044;-70
2022/01/18 05:11:02;;;;;;;21.15;3.22;;;6.50;99.90;;;;;;4766937;30;20067;-70
2022/01/18 05:24:16;;;;;;;20.08;3.20;;;6.50;99.90;;;;;;4779056;30;20094;-71
2022/01/18 05:26:42;;;;;;;14.30;3.30;;;6.50;99.90;;;;;;4796510;30;20093;-70
2022/01/18 05:29:08;;;;;;;19.33;3.00;;;6.50;99.90;;;;;;4781844;30;20296;-70
2022/01/18 05:31:33;;;;;;;19.50;4.20;;;6.50;99.90;;;;;;4796519;30;20089;-70
2022/01/18 05:33:59;;;;;;;12.55;2.85;;;6.50;99.90;;;;;;4796731;29;20119;-70
2022/01/18 05:36:25;;;;;;;17.27;2.57;;;6.50;99.90;;;;;;4796137;29;20530;-71
2022/01/18 05:38:50;;;;;;;14.60;3.47;;;6.50;99.90;;;;;;4781025;30;20063;-71
2022/01/18 05:41:16;;;;;;;19.27;2.80;;;6.50;99.90;;;;;;4781020;30;20821;-71
2022/01/18 05:43:42;;;;;;;17.58;3.08;;;6.50;99.90;;;;;;4785270;29;20050;-70
2022/01/18 05:46:08;;;;;;;19.85;3.45;;;6.60;99.90;;;;;;4786423;30;20094;-70
2022/01/18 05:48:34;;;;;;;16.45;3.10;;;6.50;99.90;;;;;;4796540;30;20057;-70
2022/01/18 05:51:00;;;;;;;15.47;3.07;;;6.50;99.90;;;;;;4795848;30;20059;-71
2022/01/18 05:53:35;;;;;;;12.98;2.80;;;6.50;99.90;;;;;;4792501;29;20364;-71
2022/01/18 05:56:04;;;;;;;11.48;3.00;;;6.50;99.90;;;;;;4788530;30;20059;-71
2022/01/18 05:58:30;;;;;;;13.95;3.28;;;6.50;99.90;;;;;;4815155;29;20058;-71
2022/01/18 06:00:56;;;;;;;15.93;2.80;;;6.60;99.90;;;;;;4833019;29;20051;-71
2022/01/18 06:03:35;;;;;;;21.05;3.75;;;6.50;99.90;;;;;;4833401;29;20081;-70
2022/01/18 06:08:44;;;;;;;16.25;2.85;;;6.50;99.90;;;;;;4826026;29;20058;-71
2022/01/18 06:11:15;;;;;;;16.53;3.87;;;6.50;99.90;;;;;;4834406;29;20133;-71
2022/01/18 06:13:41;;;;;;;19.67;4.00;;;6.50;99.90;;;;;;4834607;29;20279;-71
2022/01/18 06:16:07;;;;;;;15.47;3.87;;;6.50;99.90;;;;;;4833141;29;20089;-70
2022/01/18 06:18:33;;;;;;;10.13;3.33;;;6.50;99.90;;;;;;4832674;29;20050;-71
2022/01/18 06:20:58;;;;;;;18.80;4.35;;;6.50;99.90;;;;;;4847587;29;20066;-71
2022/01/18 06:23:24;;;;;;;14.83;4.97;;;6.50;99.90;;;;;;4834013;29;20081;-70
2022/01/18 06:25:51;;;;;;;20.52;4.18;;;6.50;99.90;;;;;;4834018;29;20676;-71
2022/01/18 06:28:16;;;;;;;15.65;3.53;;;6.40;99.90;;;;;;4848127;29;20158;-71
2022/01/18 06:30:42;;;;;;;13.67;3.60;;;6.40;99.90;;;;;;4847462;29;20130;-71
2022/01/18 06:33:08;;;;;;;19.55;4.72;;;6.40;99.90;;;;;;4833426;29;20046;-71
2022/01/18 06:35:34;;;;;;;16.23;3.67;;;6.50;99.90;;;;;;4847708;29;20050;-69
2022/01/18 06:37:59;;;;;;;16.67;3.80;;;6.50;99.90;;;;;;4817146;29;20084;-69
2022/01/18 06:40:26;;;;;;;18.77;3.53;;;6.50;99.90;;;;;;4831931;29;20043;-66
2022/01/18 06:42:52;;;;;;;16.67;3.40;;;6.60;99.90;;;;;;4832478;29;20050;-65
2022/01/18 06:45:18;;;;;;;11.88;3.28;;;6.50;99.90;;;;;;4847681;29;20169;-69
2022/01/18 06:47:44;;;;;;;10.40;3.50;;;6.60;99.90;;;;;;4832564;29;20054;-72
2022/01/18 06:50:13;;;;;;;18.73;3.95;;;6.60;99.90;;;;;;4834037;29;20174;-72
2022/01/18 06:52:39;;;;;;;13.35;3.42;;;6.60;99.90;;;;;;4833238;29;20145;-67
2022/01/18 06:55:07;;;;;;;19.20;3.50;;;6.60;99.90;;;;;;4832837;29;20113;-69
2022/01/18 06:57:32;;;;;;;15.50;3.88;;;6.60;99.90;;;;;;4834006;29;20078;-69
2022/01/18 06:59:58;;;;;;;18.33;3.70;;;6.60;99.90;;;;;;4847903;29;20362;-68
2022/01/18 07:02:24;;;;;;;17.97;3.47;;;6.60;99.90;;;;;;4833540;29;20038;-69
2022/01/18 07:04:50;;;;;;;15.57;4.40;;;6.60;99.90;;;;;;4834036;29;20336;-69
2022/01/18 07:07:17;;;;;;;18.38;4.18;;;6.60;99.90;;;;;;4847132;29;20530;-67
2022/01/18 07:09:44;;;;;;;19.75;3.95;;;6.60;99.90;;;;;;4833339;29;20054;-70
2022/01/18 07:12:11;;;;;;;19.15;4.38;;;6.60;99.90;;;;;;4833590;29;20072;-69
2022/01/18 07:14:40;;;;;;;22.27;4.80;;;6.60;99.90;;;;;;4832010;29;20058;-70
2022/01/18 07:17:05;;;;;;;16.48;4.03;;;6.60;99.90;;;;;;4832265;29;20047;-71
2022/01/18 07:19:32;;;;;;;21.67;5.07;;;6.60;99.90;;;;;;4832171;29;20066;-69
2022/01/18 07:21:59;;;;;;;15.77;4.22;;;6.60;99.90;;;;;;4832823;29;20058;-70
2022/01/18 07:24:37;;;;;;;12.93;3.85;;;6.60;99.90;;;;;;4816348;29;20062;-71
2022/01/18 07:27:04;;;;;;;14.57;4.18;;;6.60;99.90;;;;;;4813143;29;20693;-71
2022/01/18 07:29:30;;;;;;;20.98;4.72;;;6.50;99.90;;;;;;4831549;29;20054;-70
2022/01/18 07:31:56;;;;;;;18.17;4.68;;;6.60;99.90;;;;;;4831087;29;20641;-72
2022/01/18 07:34:22;;;;;;;19.80;4.63;;;6.50;99.90;;;;;;4837006;29;20074;-68
2022/01/18 07:36:47;;;;;;;20.98;5.18;;;6.50;99.90;;;;;;4851080;29;20054;-69
2022/01/18 07:39:13;;;;;;;16.30;5.07;;;6.50;99.90;;;;;;4833650;29;20054;-69
2022/01/18 07:41:39;;;;;;;24.10;5.27;;;6.50;99.90;;;;;;4850386;29;20303;-69
2022/01/18 07:44:05;;;;;;;26.35;4.70;;;6.50;99.90;;;;;;4850931;29;20187;-69
2022/01/18 07:46:31;;;;;;;24.70;4.68;;;6.50;99.90;;;;;;4833977;29;20053;-69
2022/01/18 07:48:56;;;;;;;15.88;4.22;;;6.50;99.90;;;;;;4806284;29;20050;-68
2022/01/18 07:51:22;;;;;;;16.87;4.87;;;6.50;99.90;;;;;;4851374;29;20077;-72
2022/01/18 07:53:48;;;;;;;23.37;5.33;;;6.50;99.90;;;;;;4811061;29;20057;-73
2022/01/18 07:56:13;;;;;;;24.30;6.07;;;6.50;99.90;;;;;;4816645;29;20070;-77
2022/01/18 07:58:39;;;;;;;19.67;4.90;;;6.50;99.90;;;;;;4833437;29;20066;-76
2022/01/18 08:01:05;;;;;;;27.38;5.68;;;6.40;99.90;;;;;;4851132;29;20077;-74
2022/01/18 08:03:31;;;;;;;20.37;5.53;;;6.40;99.90;;;;;;4834138;29;20060;-70
2022/01/18 08:05:57;;;;;;;25.10;5.47;;;6.40;99.90;;;;;;4850630;29;20329;-70
2022/01/18 08:08:22;;;;;;;16.08;5.40;;;6.40;99.90;;;;;;4829822;29;20378;-72
2022/01/18 08:10:48;;;;;;;30.53;6.03;;;6.30;99.90;;;;;;4837401;29;20128;-71
2022/01/18 08:13:14;;;;;;;18.15;5.13;;;6.30;99.90;;;;;;4850868;29;20042;-71
2022/01/18 08:15:42;;;;;;;25.67;5.72;;;6.20;99.90;;;;;;4848794;29;20092;-76
2022/01/18 08:18:14;;;;;;;26.80;5.63;;;6.20;99.90;;;;;;4833314;29;20054;-73
2022/01/18 08:20:40;;;;;;;22.40;5.15;;;6.20;99.90;;;;;;4826886;29;20202;-68
2022/01/18 08:23:06;;;;;;;23.95;4.80;;;6.20;99.90;;;;;;4850197;29;20046;-68
2022/01/18 08:25:34;;;;;;;20.27;5.82;;;6.20;99.90;;;;;;4850739;29;20098;-73
2022/01/18 08:28:01;;;;;;;21.20;5.68;;;6.30;99.90;;;;;;4849957;29;20054;-70
2022/01/18 08:30:27;;;;;;;23.73;5.72;;;6.30;99.90;;;;;;4832771;29;20124;-71
2022/01/18 08:32:55;;;;;;;23.25;5.15;;;6.30;99.90;;;;;;4850666;29;20228;-72
2022/01/18 08:35:21;;;;;;;28.80;5.38;;;6.30;99.90;;;;;;4849475;29;20069;-76
2022/01/18 08:37:47;;;;;;;18.55;5.18;;;6.40;99.90;;;;;;4815937;29;20529;-68
2022/01/18 08:40:13;;;;;;;23.17;5.53;;;6.40;99.90;;;;;;4815896;29;20118;-67
2022/01/18 08:42:38;;;;;;;15.73;5.05;;;6.40;99.90;;;;;;4849273;29;20440;-68
2022/01/18 08:45:06;;;;;;;24.03;4.97;;;6.40;99.90;;;;;;4833898;29;20094;-69
2022/01/18 08:47:33;;;;;;;18.92;4.75;;;6.40;99.90;;;;;;4849723;29;20061;-69
2022/01/18 08:49:59;;;;;;;27.00;6.03;;;6.50;99.90;;;;;;4833462;29;20058;-69
2022/01/18 08:52:25;;;;;;;16.63;5.40;;;6.50;99.90;;;;;;4850019;29;20045;-69
2022/01/18 08:54:50;;;;;;;22.03;5.20;;;6.50;99.90;;;;;;4848369;29;20057;-70
2022/01/18 08:57:16;;;;;;;19.63;5.03;;;6.50;99.90;;;;;;4852462;29;20128;-70
2022/01/18 08:59:43;;;;;;;20.88;5.18;;;6.60;99.90;;;;;;4852094;29;20761;-70
2022/01/18 09:02:11;;;;;;;24.30;5.78;;;6.60;99.90;;;;;;4837298;29;20077;-70
2022/01/18 09:04:37;;;;;;;17.42;4.60;;;6.60;99.90;;;;;;4851445;29;20090;-70
2022/01/18 09:07:08;;;;;;;15.75;4.70;;;6.60;99.90;;;;;;4851701;29;20054;-70
2022/01/18 09:09:40;;;;;;;15.90;4.32;;;6.60;99.90;;;;;;4853215;29;20542;-70
2022/01/18 09:12:13;;;;;;;18.67;5.03;;;6.70;99.90;;;;;;4853410;29;20060;-68
2022/01/18 09:14:39;;;;;;;20.48;5.47;;;6.70;99.90;;;;;;4852607;29;20087;-64
2022/01/18 09:17:05;;;;;;;20.67;4.65;;;6.70;99.90;;;;;;4853849;29;20061;-71
2022/01/18 09:19:31;;;;;;;16.15;4.90;;;6.70;99.90;;;;;;4836161;29;20053;-76
2022/01/18 09:21:59;;;;;;;17.67;4.68;;;6.80;99.90;;;;;;4837138;29;20061;-73
2022/01/18 09:24:24;;;;;;;12.35;4.32;;;6.80;99.90;;;;;;4819723;29;20063;-72
2022/01/18 09:26:50;;;;;;;18.73;5.13;;;6.80;99.90;;;;;;4835064;29;20064;-72
2022/01/18 09:29:16;;;;;;;19.33;5.70;;;6.80;99.90;;;;;;4836911;29;20050;-72
2022/01/18 09:31:42;;;;;;;22.63;5.30;;;6.80;99.90;;;;;;4811642;29;20319;-71
2022/01/18 09:34:08;;;;;;;24.27;4.22;;;6.90;99.90;;;;;;4835901;29;20050;-69
2022/01/18 09:36:33;;;;;;;18.33;4.32;;;6.90;99.90;;;;;;4836021;29;20158;-72
2022/01/18 09:38:59;;;;;;;18.90;6.60;;;6.90;99.90;;;;;;4836020;29;20070;-70
2022/01/18 09:41:29;;;;;;;19.17;4.05;;;6.90;99.90;;;;;;4851944;29;20054;-74
2022/01/18 09:43:55;;;;;;;21.00;4.65;;;7.00;99.90;;;;;;4836679;29;20248;-69
2022/01/18 09:46:24;;;;;;;15.50;4.22;;;7.00;99.90;;;;;;4836805;29;20096;-66
2022/01/18 09:48:55;;;;;;;15.32;4.10;;;7.00;99.90;;;;;;4835535;29;20111;-68
2022/01/18 09:51:22;;;;;;;20.40;5.18;;;7.00;99.90;;;;;;4835408;29;20117;-67
2022/01/18 09:53:48;;;;;;;;;;;7.00;99.90;;;;;;4852676;29;20200;-67
2022/01/18 09:56:14;;;;;;;14.88;4.07;;;7.00;99.90;;;;;;4836087;29;19984;-66
2022/01/18 09:58:40;;;;;;;19.00;4.95;;;7.10;99.90;;;;;;4852775;29;20483;-67
2022/01/18 10:01:06;;;;;;;16.87;4.50;;;7.10;99.90;;;;;;4836058;29;20080;-66
2022/01/18 10:03:37;;;;;;;19.73;5.38;;;7.10;99.90;;;;;;4852866;29;20086;-67
2022/01/18 10:06:05;;;;;;;16.95;4.80;;;7.10;99.90;;;;;;4835765;29;20057;-67
2022/01/18 10:08:31;;;;;;;18.13;5.32;;;7.20;99.90;;;;;;4844567;29;20379;-65
2022/01/18 10:10:59;;;;;;;14.45;4.90;;;7.20;99.90;;;;;;4835763;29;20045;-67
2022/01/18 10:13:29;;;;;;;16.23;5.10;;;7.20;99.90;;;;;;4852671;29;20065;-67
2022/01/18 10:16:06;;;;;;;18.92;5.63;;;7.20;99.90;;;;;;4835845;29;20058;-70
2022/01/18 10:18:35;;;;;;;16.20;5.32;;;7.30;99.90;;;;;;4852839;29;20066;-69
2022/01/18 10:21:01;;;;;;;19.20;6.10;;;7.30;99.90;;;;;;4835491;29;20068;-67
2022/01/18 10:23:27;;;;;;;19.63;5.53;;;7.30;99.90;;;;;;4818592;29;20058;-68
2022/01/18 10:25:53;;;;;;;22.05;6.13;;;7.30;99.90;;;;;;4819698;29;20102;-68
2022/01/18 10:28:29;;;;;;;20.50;5.38;;;7.30;99.90;;;;;;4833572;29;20117;-68
2022/01/18 10:30:55;;;;;;;20.88;5.50;;;7.30;99.90;;;;;;4834848;29;20098;-68
2022/01/18 10:33:27;;;;;;;15.27;4.80;;;7.30;99.90;;;;;;4835171;29;20061;-68
2022/01/18 10:36:12;;;;;;;15.68;4.47;;;7.40;99.90;;;;;;4843978;29;20059;-70
2022/01/18 10:38:46;;;;;;;13.77;4.60;;;7.30;99.90;;;;;;4851257;29;20061;-71
2022/01/18 10:41:41;;;;;;;20.40;4.90;;;7.40;99.90;;;;;;4852024;29;20050;-66
2022/01/18 10:44:13;;;;;;;22.63;5.22;;;7.40;99.90;;;;;;4789558;29;20989;-66
2022/01/18 10:46:43;;;;;;;16.95;4.80;;;7.40;99.90;;;;;;4776795;30;20512;-67
2022/01/18 10:49:10;;;;;;;18.60;4.90;;;7.40;99.90;;;;;;4792262;30;20442;-67
2022/01/18 10:51:37;;;;;;;;;;;7.50;99.90;;;;;;4778273;30;20120;-64
2022/01/18 10:54:08;;;;;;;24.20;5.22;;;7.40;99.90;;;;;;4788532;29;20405;-69
2022/01/18 10:56:43;;;;;;;17.52;4.30;;;7.50;99.90;;;;;;4772082;30;20087;-69
2022/01/18 10:59:23;;;;;;;17.20;4.85;;;7.50;99.90;;;;;;4769189;30;20139;-68
2022/01/18 11:02:17;;;;;;;16.73;5.07;;;7.50;99.90;;;;;;4774295;30;20058;-69
2022/01/18 11:04:55;;;;;;;15.82;4.90;;;7.50;99.90;;;;;;4773352;30;20066;-69
2022/01/18 11:07:25;;;;;;;16.77;4.65;;;7.50;99.90;;;;;;4784065;30;20052;-66
2022/01/18 11:09:51;;;;;;;17.25;4.38;;;7.50;99.90;;;;;;4794712;30;20465;-67
2022/01/18 11:12:24;;;;;;;14.65;4.85;;;7.50;99.90;;;;;;4775979;30;20060;-67
2022/01/18 11:15:00;;;;;;;16.45;5.75;;;7.50;99.90;;;;;;4774995;30;20648;-68
2022/01/18 11:17:26;;;;;;;20.13;5.20;;;7.60;99.90;;;;;;4789893;30;20133;-68
2022/01/18 11:19:57;;;;;;;15.25;4.85;;;7.60;99.90;;;;;;4804410;29;20111;-67
2022/01/18 11:22:25;;;;;;;17.67;5.60;;;7.60;99.90;;;;;;4833839;29;20046;-68
2022/01/18 11:24:51;;;;;;;21.27;4.90;;;7.60;99.90;;;;;;4829750;29;20061;-68
2022/01/18 11:27:18;;;;;;;16.05;4.80;;;7.70;99.90;;;;;;4815215;29;20073;-67
2022/01/18 11:29:49;;;;;;;16.27;4.30;;;7.70;99.90;;;;;;4851826;29;20050;-67
2022/01/18 11:32:16;;;;;;;17.45;4.53;;;7.70;99.90;;;;;;4851340;29;20049;-67
2022/01/18 11:35:01;;;;;;;15.68;4.72;;;7.80;99.90;;;;;;4850534;29;20078;-67
2022/01/18 11:37:39;;;;;;;14.73;4.60;;;7.80;99.90;;;;;;4850938;29;20049;-67
2022/01/18 11:40:09;;;;;;;16.17;4.70;;;7.70;99.90;;;;;;4849168;29;20049;-71
2022/01/18 11:42:55;;;;;;;11.60;3.97;;;7.70;99.90;;;;;;4834393;29;20050;-71
2022/01/18 11:45:24;;;;;;;15.82;4.00;;;7.70;99.90;;;;;;4834274;29;20085;-67
2022/01/18 11:48:05;;;;;;;19.20;4.53;;;7.70;99.90;;;;;;4848970;29;20061;-69
2022/01/18 11:50:37;;;;;;;20.35;4.90;;;7.70;99.90;;;;;;4831591;29;20062;-69
2022/01/18 11:54:16;;;;;;;16.98;4.53;;;7.70;99.90;;;;;;4851103;29;20463;-67
2022/01/18 11:56:34;;;;;;;18.40;5.05;;;7.70;99.90;;;;;;4831239;29;20058;-66
2022/01/18 11:59:20;;;;;;;14.57;4.82;;;7.70;99.90;;;;;;4829999;29;20088;-69
2022/01/18 12:01:53;;;;;;;14.25;4.50;;;7.70;99.90;;;;;;4849327;29;20110;-64
2022/01/18 12:04:42;;;;;;;14.48;4.20;;;7.70;99.90;;;;;;4850056;29;20084;-65
2022/01/18 12:07:31;;;;;;;15.80;5.03;;;7.70;99.90;;;;;;4829695;29;20057;-66
2022/01/18 12:09:57;;;;;;;11.07;4.30;;;7.70;99.90;;;;;;4833035;29;20050;-72
2022/01/18 12:12:46;;;;;;;12.88;4.22;;;7.70;99.90;;;;;;4833682;29;20049;-69
2022/01/18 12:15:24;;;;;;;12.02;3.85;;;7.70;99.90;;;;;;4848130;29;20100;-68
2022/01/18 12:18:01;;;;;;;15.85;4.00;;;7.70;99.90;;;;;;4833786;29;20129;-70
2022/01/18 12:20:46;;;;;;;14.73;4.40;;;7.60;99.90;;;;;;4833911;29;20050;-70
2022/01/18 12:23:13;;;;;;;14.35;4.53;;;7.60;99.90;;;;;;4846577;29;20408;-72
2022/01/18 12:26:02;;;;;;;12.98;3.97;;;7.60;99.90;;;;;;4833404;29;20106;-71
2022/01/18 12:28:55;;;;;;;9.13;4.13;;;7.60;99.90;;;;;;4829528;29;20062;-70
2022/01/18 12:34:46;;;;;;;13.00;4.80;;;7.50;99.90;;;;;;4837126;29;20054;-70
2022/01/18 12:37:13;;;;;;;20.67;4.82;;;7.50;99.90;;;;;;4854294;29;20129;-70
2022/01/18 12:40:03;;;;;;;20.92;5.45;;;7.50;99.90;;;;;;4817949;29;20134;-71
2022/01/18 12:45:29;;;;;;;15.55;4.55;;;7.50;99.90;;;;;;4837028;29;20113;-67
2022/01/18 12:48:04;;;;;;;13.93;5.00;;;7.50;99.90;;;;;;4853076;29;20042;-73
2022/01/18 12:50:37;;;;;;;13.30;4.97;;;7.50;99.90;;;;;;4836090;29;20085;-72
2022/01/18 12:53:07;;;;;;;16.23;5.80;;;7.40;99.90;;;;;;4835818;29;20512;-73
